Terminal Aerodrome Forecast
Issued by NWS

Home | Current Version | Previous Version | Text Only | Print | Product List | Glossary On
Versions: 1 2 3 4 5 6 7 8 9 10 11 12 13 14
497
FTPA31 PHFO 242340
TAFHKO
TAF
PHKO 242340Z 2500/2524 23012KT P6SM FEW025 SCT070
     FM250600 20009KT P6SM FEW025 SCT040 BKN070
     FM251200 10006KT P6SM SCT040 SCT070
     FM252100 25012KT P6SM SCT040 BKN070=

USA.gov is the U.S. government's official web portal to all federal, state and local government web resources and services.